Time;durP1;ratioP1;P1;durP2;ratioP2;P2;SDS_P1;SDS_P2;PMS_P1;PMS_P2;Temp;Humidity;BMP_temperature;BMP_pressure;BME280_temperature;BME280_humidity;BME280_pressure;Samples;Min_cycle;Max_cycle;Signal;HPM_P1;HPM_P2
2022/07/05 00:01:02;;;;;;;10.63;4.88;;;11.50;99.90;;;;;;4900312;29;20052;-86
2022/07/05 00:03:28;;;;;;;6.25;4.10;;;11.50;99.90;;;;;;4882356;29;20051;-86
2022/07/05 00:05:54;;;;;;;7.43;4.18;;;11.40;99.90;;;;;;4896368;29;20414;-86
2022/07/05 00:08:20;;;;;;;6.80;4.70;;;11.40;99.90;;;;;;4881451;29;20056;-86
2022/07/05 00:10:47;;;;;;;7.32;4.45;;;11.40;99.90;;;;;;4880276;29;20048;-86
2022/07/05 00:13:13;;;;;;;6.95;4.30;;;11.30;99.90;;;;;;4893300;29;20067;-86
2022/07/05 00:15:39;;;;;;;6.28;4.30;;;11.30;99.90;;;;;;4869884;29;20047;-86
2022/07/05 00:18:05;;;;;;;6.05;4.18;;;11.40;99.90;;;;;;4871081;29;20118;-86
2022/07/05 00:20:31;;;;;;;5.53;4.57;;;11.20;99.90;;;;;;4895463;29;20123;-88
2022/07/05 00:22:57;;;;;;;7.97;4.60;;;11.20;99.90;;;;;;4880356;29;20163;-89
2022/07/05 00:25:23;;;;;;;8.07;4.55;;;11.20;99.90;;;;;;4861729;29;20049;-85
2022/07/05 00:27:48;;;;;;;7.60;4.50;;;11.20;99.90;;;;;;4894008;29;20076;-86
2022/07/05 00:30:14;;;;;;;7.05;4.22;;;11.20;99.90;;;;;;4879057;29;20478;-90
2022/07/05 00:32:40;;;;;;;7.28;4.53;;;11.20;99.90;;;;;;4891140;29;20456;-86
2022/07/05 00:35:07;;;;;;;6.10;4.53;;;11.30;99.90;;;;;;4871355;29;20559;-86
2022/07/05 00:37:32;;;;;;;8.13;4.72;;;11.20;99.90;;;;;;4879240;29;20407;-86
2022/07/05 00:39:58;;;;;;;7.28;4.85;;;11.10;99.90;;;;;;4877858;29;20060;-86
2022/07/05 00:42:24;;;;;;;5.78;4.78;;;11.20;99.90;;;;;;4880104;29;20068;-85
2022/07/05 00:44:50;;;;;;;7.82;4.80;;;11.10;99.90;;;;;;4849140;29;20032;-85
2022/07/05 00:47:17;;;;;;;6.80;4.72;;;11.10;99.90;;;;;;4881003;29;20080;-88
2022/07/05 00:49:43;;;;;;;6.80;4.53;;;11.00;99.90;;;;;;4907730;29;20047;-85
2022/07/05 00:52:10;;;;;;;7.13;4.63;;;11.00;99.90;;;;;;4868329;29;20069;-86
2022/07/05 00:54:38;;;;;;;8.80;5.10;;;11.00;99.90;;;;;;4900399;29;20159;-85
2022/07/05 00:57:05;;;;;;;7.97;4.50;;;11.00;99.90;;;;;;4887825;29;20108;-86
2022/07/05 00:59:31;;;;;;;7.32;4.55;;;10.90;99.90;;;;;;4904351;29;20175;-85
2022/07/05 01:01:57;;;;;;;5.20;4.30;;;11.00;99.90;;;;;;4895163;29;20469;-86
2022/07/05 01:04:23;;;;;;;9.35;4.50;;;11.00;99.90;;;;;;4881645;29;20054;-88
2022/07/05 01:06:51;;;;;;;5.03;4.50;;;11.00;99.90;;;;;;4876710;29;20049;-84
2022/07/05 01:09:18;;;;;;;5.78;4.40;;;11.00;99.90;;;;;;4877295;29;20546;-85
2022/07/05 01:11:47;;;;;;;6.82;4.88;;;11.00;99.90;;;;;;4895078;29;20048;-86
2022/07/05 01:14:16;;;;;;;7.22;4.90;;;10.90;99.90;;;;;;4865241;29;20451;-86
2022/07/05 01:16:42;;;;;;;4.85;3.88;;;10.80;99.90;;;;;;4893200;29;20154;-88
2022/07/05 01:19:11;;;;;;;6.90;4.70;;;10.80;99.90;;;;;;4904023;29;20123;-85
2022/07/05 01:21:42;;;;;;;9.07;4.75;;;10.70;99.90;;;;;;4907525;29;20059;-86
2022/07/05 01:24:10;;;;;;;4.97;4.47;;;10.70;99.90;;;;;;4880223;29;20057;-85
2022/07/05 01:26:37;;;;;;;8.25;5.07;;;10.60;99.90;;;;;;4879809;29;20040;-86
2022/07/05 01:29:03;;;;;;;8.18;5.55;;;10.60;99.90;;;;;;4890379;29;20052;-85
2022/07/05 01:31:29;;;;;;;8.75;5.38;;;10.70;99.90;;;;;;4913090;29;20466;-86
2022/07/05 01:33:55;;;;;;;6.90;5.03;;;10.50;99.90;;;;;;4883061;29;20498;-87
2022/07/05 01:36:21;;;;;;;5.47;4.97;;;10.50;99.90;;;;;;4879146;29;20087;-86
2022/07/05 01:38:46;;;;;;;6.72;5.22;;;10.50;99.90;;;;;;4863446;29;20148;-87
2022/07/05 01:41:12;;;;;;;8.73;5.05;;;10.50;99.90;;;;;;4873295;29;20495;-87
2022/07/05 01:43:38;;;;;;;9.50;4.97;;;10.50;99.90;;;;;;4905364;29;20052;-86
2022/07/05 01:46:05;;;;;;;9.85;6.07;;;10.40;99.90;;;;;;4882449;29;20101;-86
2022/07/05 01:48:34;;;;;;;10.15;5.68;;;10.50;99.90;;;;;;4874499;29;20075;-87
2022/07/05 01:51:03;;;;;;;7.30;6.07;;;10.50;99.90;;;;;;4906331;29;20070;-85
2022/07/05 01:53:30;;;;;;;8.55;6.90;;;10.40;99.90;;;;;;4883869;29;20060;-85
2022/07/05 01:56:00;;;;;;;9.75;7.82;;;10.40;99.90;;;;;;4889185;29;20052;-85
2022/07/05 01:58:27;;;;;;;9.65;7.50;;;10.50;99.90;;;;;;4905214;29;20439;-87
2022/07/05 02:00:54;;;;;;;12.68;8.80;;;10.60;99.90;;;;;;4921445;29;20076;-86
2022/07/05 02:03:21;;;;;;;11.02;8.27;;;10.60;99.90;;;;;;4886067;29;20115;-85
2022/07/05 02:05:47;;;;;;;16.77;9.27;;;10.60;99.90;;;;;;4909585;29;20616;-87
2022/07/05 02:08:14;;;;;;;14.35;8.98;;;10.60;99.90;;;;;;4892507;29;20108;-87
2022/07/05 02:10:41;;;;;;;16.25;9.95;;;10.60;99.90;;;;;;4870475;29;20083;-86
2022/07/05 02:13:07;;;;;;;15.75;10.38;;;10.70;99.90;;;;;;4864641;29;20049;-85
2022/07/05 02:15:35;;;;;;;15.93;10.50;;;10.80;99.90;;;;;;4888739;29;20136;-86
2022/07/05 02:18:04;;;;;;;13.32;10.88;;;10.80;99.90;;;;;;4882644;29;20068;-86
2022/07/05 02:20:31;;;;;;;13.98;10.20;;;10.80;99.90;;;;;;4879226;29;20075;-88
2022/07/05 02:22:57;;;;;;;13.38;10.45;;;10.90;99.90;;;;;;4881861;29;20049;-86
2022/07/05 02:25:24;;;;;;;19.58;10.93;;;10.90;99.90;;;;;;4887921;29;20044;-86
2022/07/05 02:27:51;;;;;;;13.52;11.35;;;10.90;99.90;;;;;;4881922;29;20044;-86
2022/07/05 02:30:18;;;;;;;15.95;10.70;;;10.80;99.90;;;;;;4875229;29;20466;-86
2022/07/05 02:32:43;;;;;;;15.30;10.35;;;10.80;99.90;;;;;;4885715;29;20067;-86
2022/07/05 02:35:10;;;;;;;15.27;11.15;;;10.80;99.90;;;;;;4898009;29;20490;-85
2022/07/05 02:37:36;;;;;;;14.95;10.40;;;10.80;99.90;;;;;;4868707;29;20562;-86
2022/07/05 02:40:04;;;;;;;16.08;10.68;;;10.80;99.90;;;;;;4904234;29;20052;-86
2022/07/05 02:42:30;;;;;;;15.98;11.23;;;10.80;99.90;;;;;;4881905;29;20059;-85
2022/07/05 02:44:55;;;;;;;15.20;11.00;;;10.80;99.90;;;;;;4891652;29;20040;-85
2022/07/05 02:47:21;;;;;;;12.82;11.10;;;10.70;99.90;;;;;;4899074;29;20052;-85
2022/07/05 02:49:47;;;;;;;13.93;10.25;;;10.80;99.90;;;;;;4860340;29;20056;-84
2022/07/05 02:52:12;;;;;;;13.60;10.25;;;10.80;99.90;;;;;;4840781;29;20067;-86
2022/07/05 02:54:39;;;;;;;16.25;11.73;;;10.80;99.90;;;;;;4865557;29;20056;-85
2022/07/05 02:57:05;;;;;;;12.90;10.48;;;10.80;99.90;;;;;;4876499;29;20125;-85
2022/07/05 02:59:31;;;;;;;13.57;11.43;;;10.80;99.90;;;;;;4866369;29;20138;-85
2022/07/05 03:01:56;;;;;;;13.25;11.48;;;10.70;99.90;;;;;;4851310;29;20198;-85
2022/07/05 03:04:22;;;;;;;15.02;11.95;;;10.70;99.90;;;;;;4832421;29;20044;-86
2022/07/05 03:06:48;;;;;;;16.35;11.30;;;10.70;99.90;;;;;;4832677;29;20048;-85
2022/07/05 03:09:14;;;;;;;18.77;11.23;;;10.70;99.90;;;;;;4860564;29;20060;-85
2022/07/05 03:11:40;;;;;;;14.07;11.32;;;10.70;99.90;;;;;;4826261;29;20403;-85
2022/07/05 03:14:05;;;;;;;14.05;10.35;;;10.50;99.90;;;;;;4878808;29;20045;-85
2022/07/05 03:16:31;;;;;;;11.88;9.73;;;10.50;99.90;;;;;;4831359;29;20067;-86
2022/07/05 03:18:57;;;;;;;13.32;9.55;;;10.40;99.90;;;;;;4848310;29;20063;-85
2022/07/05 03:21:23;;;;;;;14.95;10.73;;;10.30;99.90;;;;;;4857703;29;20061;-86
2022/07/05 03:23:49;;;;;;;18.35;10.30;;;10.30;99.90;;;;;;4830423;29;20514;-85
2022/07/05 03:26:14;;;;;;;15.45;10.85;;;10.30;99.90;;;;;;4842531;29;20049;-85
2022/07/05 03:28:40;;;;;;;15.88;10.15;;;10.20;99.90;;;;;;4866025;29;20128;-86
2022/07/05 03:31:06;;;;;;;13.48;10.10;;;10.30;99.90;;;;;;4852426;29;20053;-86
2022/07/05 03:33:31;;;;;;;11.40;9.77;;;10.10;99.90;;;;;;4833521;29;20593;-88
2022/07/05 03:35:57;;;;;;;8.77;6.43;;;10.20;99.90;;;;;;4874799;29;20135;-86
2022/07/05 03:38:23;;;;;;;6.75;5.88;;;10.10;99.90;;;;;;4861740;29;20137;-86
2022/07/05 03:40:48;;;;;;;6.05;5.50;;;10.20;99.90;;;;;;4863889;29;20116;-87
2022/07/05 03:43:14;;;;;;;6.25;5.40;;;10.10;99.90;;;;;;4866033;29;20055;-87
2022/07/05 03:45:40;;;;;;;8.88;7.05;;;10.10;99.90;;;;;;4833268;29;20048;-87
2022/07/05 03:48:06;;;;;;;9.65;8.15;;;10.00;99.90;;;;;;4845284;29;20057;-86
2022/07/05 03:50:31;;;;;;;13.10;9.20;;;10.00;99.90;;;;;;4831372;29;20057;-87
2022/07/05 03:52:57;;;;;;;16.10;8.70;;;10.00;99.90;;;;;;4833850;29;20049;-85
2022/07/05 03:55:23;;;;;;;12.63;9.43;;;9.90;99.90;;;;;;4865080;29;20056;-86
2022/07/05 03:57:48;;;;;;;13.85;9.20;;;9.90;99.90;;;;;;4852323;29;20056;-86
2022/07/05 04:00:15;;;;;;;16.63;9.90;;;10.00;99.90;;;;;;4873831;29;20501;-86
2022/07/05 04:02:41;;;;;;;13.40;10.57;;;10.00;99.90;;;;;;4846914;29;20189;-85
2022/07/05 04:05:07;;;;;;;17.10;11.40;;;10.10;99.90;;;;;;4848631;29;20041;-85
2022/07/05 04:07:33;;;;;;;17.50;12.30;;;10.10;99.90;;;;;;4879541;29;20049;-87
2022/07/05 04:10:00;;;;;;;19.23;12.68;;;10.10;99.90;;;;;;4855548;29;20474;-85
2022/07/05 04:12:25;;;;;;;15.05;11.68;;;10.20;99.90;;;;;;4852775;29;20056;-85
2022/07/05 04:14:51;;;;;;;20.67;12.75;;;10.30;99.90;;;;;;4865309;29;20075;-85
2022/07/05 04:17:17;;;;;;;17.75;12.68;;;10.40;99.90;;;;;;4853218;29;20533;-87
2022/07/05 04:19:43;;;;;;;15.75;12.52;;;10.50;99.90;;;;;;4850352;29;20049;-86
2022/07/05 04:22:09;;;;;;;14.65;12.23;;;10.60;99.90;;;;;;4869076;29;20049;-88
2022/07/05 04:25:16;;;;;;;15.25;13.10;;;10.60;99.90;;;;;;4867401;29;20043;-86
2022/07/05 04:27:20;;;;;;;17.83;11.50;;;10.60;99.90;;;;;;4865904;29;20403;-86
2022/07/05 04:29:46;;;;;;;17.70;11.55;;;10.70;99.90;;;;;;4855117;29;20050;-87
2022/07/05 04:32:12;;;;;;;18.00;13.05;;;10.90;99.90;;;;;;4836444;29;20063;-86
2022/07/05 04:34:37;;;;;;;14.82;11.13;;;10.80;99.90;;;;;;4853323;29;20137;-86
2022/07/05 04:37:03;;;;;;;14.88;11.48;;;10.90;99.90;;;;;;4827172;29;20052;-87
2022/07/05 04:39:29;;;;;;;16.63;12.10;;;11.00;99.90;;;;;;4856315;29;20088;-88
2022/07/05 04:41:54;;;;;;;15.88;11.65;;;11.00;99.90;;;;;;4845939;29;20045;-87
2022/07/05 04:44:20;;;;;;;13.90;11.20;;;11.10;99.90;;;;;;4847256;29;20049;-88
2022/07/05 04:46:46;;;;;;;17.48;11.38;;;11.20;99.90;;;;;;4845775;29;20176;-89
2022/07/05 04:49:11;;;;;;;14.98;11.15;;;11.30;99.90;;;;;;4814546;29;20139;-89
2022/07/05 04:51:37;;;;;;;13.65;11.15;;;11.40;99.90;;;;;;4862892;29;20065;-88
2022/07/05 04:54:03;;;;;;;14.90;11.05;;;11.40;99.90;;;;;;4852538;29;20500;-88
2022/07/05 04:56:28;;;;;;;13.18;10.55;;;11.40;99.90;;;;;;4869828;29;20057;-89
2022/07/05 04:58:54;;;;;;;18.30;11.25;;;11.40;99.90;;;;;;4847194;29;20067;-89
2022/07/05 05:01:20;;;;;;;15.13;11.10;;;11.50;99.90;;;;;;4842862;29;20124;-88
2022/07/05 05:03:45;;;;;;;16.83;10.65;;;11.40;99.90;;;;;;4835170;29;20045;-89
2022/07/05 05:06:13;;;;;;;21.10;11.20;;;11.40;99.90;;;;;;4840510;29;20033;-89
2022/07/05 05:08:39;;;;;;;14.20;10.35;;;11.40;99.90;;;;;;4840715;29;20061;-88
2022/07/05 05:11:05;;;;;;;13.82;10.23;;;11.50;99.90;;;;;;4822772;29;20060;-89
2022/07/05 05:13:31;;;;;;;12.88;10.63;;;11.50;99.90;;;;;;4836194;29;20053;-86
2022/07/05 05:15:56;;;;;;;13.23;10.18;;;11.50;99.90;;;;;;4836904;29;20106;-85
2022/07/05 05:18:26;;;;;;;13.23;9.48;;;11.50;99.90;;;;;;4870672;29;20045;-86
2022/07/05 05:20:53;;;;;;;11.15;9.48;;;11.70;99.90;;;;;;4875310;29;20710;-86
2022/07/05 05:23:19;;;;;;;11.60;9.73;;;11.80;99.90;;;;;;4855456;29;20487;-87
2022/07/05 05:25:45;;;;;;;12.50;9.40;;;12.00;99.90;;;;;;4862757;29;20045;-87
2022/07/05 05:28:11;;;;;;;14.30;9.75;;;12.10;99.90;;;;;;4865664;29;20056;-85
2022/07/05 05:30:36;;;;;;;11.07;8.95;;;12.30;99.90;;;;;;4830775;29;20134;-86
2022/07/05 05:33:02;;;;;;;14.57;8.88;;;12.40;99.90;;;;;;4851530;29;20124;-86
2022/07/05 05:35:28;;;;;;;10.40;9.00;;;12.50;99.90;;;;;;4843246;29;20136;-85
2022/07/05 05:37:55;;;;;;;11.25;9.00;;;12.60;99.90;;;;;;4856125;29;20090;-86
2022/07/05 05:40:23;;;;;;;13.15;8.90;;;12.80;99.90;;;;;;4873226;29;20049;-86
2022/07/05 05:42:49;;;;;;;10.90;8.63;;;13.00;99.90;;;;;;4863467;29;20498;-87
2022/07/05 05:45:15;;;;;;;12.52;8.52;;;13.10;99.90;;;;;;4860759;29;20882;-87
2022/07/05 05:47:54;;;;;;;10.80;8.07;;;13.20;99.90;;;;;;4820499;29;20063;-87
2022/07/05 05:50:22;;;;;;;10.35;8.75;;;13.30;99.90;;;;;;4855930;29;20061;-86
2022/07/05 05:52:48;;;;;;;11.85;8.45;;;13.30;99.90;;;;;;4890139;29;20080;-86
2022/07/05 05:55:14;;;;;;;9.60;7.65;;;13.30;99.90;;;;;;4875276;29;20431;-86
2022/07/05 05:57:39;;;;;;;9.93;7.07;;;13.50;99.90;;;;;;4905965;29;20052;-86
2022/07/05 06:00:06;;;;;;;9.02;7.53;;;13.60;99.90;;;;;;4907196;29;20052;-87
2022/07/05 06:02:33;;;;;;;8.45;6.45;;;13.70;99.90;;;;;;4906552;29;20051;-86
2022/07/05 06:04:58;;;;;;;8.98;6.82;;;13.80;99.90;;;;;;4888060;29;20048;-88
2022/07/05 06:07:24;;;;;;;7.15;6.40;;;13.90;99.90;;;;;;4900689;29;20103;-87
2022/07/05 06:09:50;;;;;;;8.40;7.10;;;13.90;99.90;;;;;;4910273;29;20052;-85
2022/07/05 06:12:15;;;;;;;9.50;6.60;;;14.00;99.90;;;;;;4863649;29;20096;-86
2022/07/05 06:14:41;;;;;;;9.35;7.10;;;14.10;99.90;;;;;;4905435;29;20053;-86
2022/07/05 06:17:07;;;;;;;10.20;6.47;;;14.20;99.90;;;;;;4876063;29;20462;-85
2022/07/05 06:19:32;;;;;;;7.47;6.13;;;14.30;99.90;;;;;;4883485;29;20095;-86
2022/07/05 06:21:58;;;;;;;9.75;5.57;;;14.50;99.90;;;;;;4883297;29;20052;-87
2022/07/05 06:24:24;;;;;;;10.85;5.57;;;14.70;99.90;;;;;;4868079;29;20048;-87
2022/07/05 06:26:49;;;;;;;7.18;5.68;;;14.90;99.90;;;;;;4866931;29;20111;-86
2022/07/05 06:29:15;;;;;;;5.95;4.60;;;15.20;99.90;;;;;;4884169;29;20076;-86
2022/07/05 06:31:41;;;;;;;9.95;4.70;;;15.50;99.90;;;;;;4889178;29;20082;-85
2022/07/05 06:34:06;;;;;;;5.90;3.88;;;15.70;99.90;;;;;;4880060;29;20052;-86
2022/07/05 06:36:32;;;;;;;5.47;3.53;;;15.90;99.90;;;;;;4897690;29;20070;-86
2022/07/05 06:38:57;;;;;;;3.90;2.90;;;16.20;99.90;;;;;;4908613;29;20087;-87
2022/07/05 06:41:23;;;;;;;6.93;2.35;;;16.40;99.90;;;;;;4888283;29;20050;-86
2022/07/05 06:43:49;;;;;;;3.53;2.00;;;16.70;74.00;;;;;;4893599;29;20050;-85
2022/07/05 06:46:14;;;;;;;4.57;2.33;;;16.90;25.10;;;;;;4887994;29;20147;-85
2022/07/05 06:48:40;;;;;;;4.93;1.85;;;17.20;14.40;;;;;;4847901;29;20037;-84
2022/07/05 06:51:06;;;;;;;7.15;1.83;;;17.40;13.10;;;;;;4908247;29;20060;-89
2022/07/05 06:53:31;;;;;;;2.70;1.50;;;17.70;1.00;;;;;;4900570;29;20099;-85
2022/07/05 06:55:57;;;;;;;4.60;1.60;;;17.80;1.00;;;;;;4916825;29;20122;-85
2022/07/05 06:58:23;;;;;;;4.88;1.55;;;18.00;1.00;;;;;;4898718;29;20060;-84
2022/07/05 07:00:49;;;;;;;7.30;1.50;;;18.20;1.00;;;;;;4881927;29;20116;-84
2022/07/05 07:03:15;;;;;;;2.88;1.30;;;18.40;1.00;;;;;;4878109;29;20128;-85
2022/07/05 07:05:41;;;;;;;3.85;1.10;;;18.60;1.00;;;;;;4877620;29;20056;-85
2022/07/05 07:10:51;;;;;;;5.07;0.90;;;19.00;99.90;;;;;;4902679;29;20063;-86
2022/07/05 07:13:17;;;;;;;2.90;0.90;;;19.20;99.90;;;;;;4900262;29;20375;-85
2022/07/05 07:15:43;;;;;;;6.00;1.00;;;19.30;99.90;;;;;;4901110;29;20124;-86
2022/07/05 07:18:09;;;;;;;3.03;0.73;;;19.50;99.90;;;;;;4881349;29;20059;-86
2022/07/05 07:20:34;;;;;;;4.38;0.70;;;19.70;99.90;;;;;;4866005;29;20056;-85
2022/07/05 07:23:00;;;;;;;2.70;0.63;;;20.00;99.90;;;;;;4881591;29;20479;-86
2022/07/05 07:25:26;;;;;;;3.03;0.65;;;20.20;1.00;;;;;;4865793;29;20810;-85
2022/07/05 07:27:54;;;;;;;4.68;0.82;;;20.20;1.00;;;;;;4896632;29;20048;-85
2022/07/05 07:30:23;;;;;;;3.42;0.88;;;20.20;1.00;;;;;;4906919;29;20051;-85
2022/07/05 07:32:48;;;;;;;4.57;0.90;;;20.00;1.00;;;;;;4910510;29;20398;-85
2022/07/05 07:35:14;;;;;;;3.13;0.63;;;19.80;1.00;;;;;;4865622;29;20052;-85
2022/07/05 07:37:40;;;;;;;3.80;0.77;;;19.60;1.00;;;;;;4886117;29;20434;-86
2022/07/05 07:40:07;;;;;;;5.72;0.77;;;19.70;1.00;;;;;;4914827;29;20117;-85
2022/07/05 07:42:33;;;;;;;2.45;0.77;;;20.00;1.00;;;;;;4897999;29;20052;-86
2022/07/05 07:45:03;;;;;;;3.83;0.70;;;20.20;1.00;;;;;;4899067;29;20178;-85
2022/07/05 07:47:33;;;;;;;6.00;0.98;;;20.40;1.00;;;;;;4897096;29;20091;-85
2022/07/05 07:49:59;;;;;;;4.13;0.60;;;20.50;99.90;;;;;;4894241;29;20139;-85
2022/07/05 07:52:25;;;;;;;5.10;0.77;;;20.50;99.90;;;;;;4875829;29;20067;-86
2022/07/05 07:54:51;;;;;;;2.28;0.60;;;20.50;99.90;;;;;;4846813;29;20045;-85
2022/07/05 07:57:18;;;;;;;3.22;0.80;;;20.40;99.90;;;;;;4863601;29;20100;-84
2022/07/05 07:59:46;;;;;;;2.72;0.80;;;20.50;99.90;;;;;;4852415;29;20061;-86
2022/07/05 08:02:12;;;;;;;5.47;1.58;;;20.80;99.90;;;;;;4879259;29;20059;-87
2022/07/05 08:04:38;;;;;;;2.05;0.68;;;20.70;99.90;;;;;;4851897;29;20056;-85
2022/07/05 08:07:04;;;;;;;4.20;0.70;;;20.40;99.90;;;;;;4865100;29;20076;-86
2022/07/05 08:09:30;;;;;;;2.28;0.65;;;20.20;99.90;;;;;;4860874;29;20100;-86
2022/07/05 08:11:56;;;;;;;2.05;0.70;;;20.00;99.90;;;;;;4853787;29;20052;-85
2022/07/05 08:14:22;;;;;;;2.70;0.50;;;19.80;99.90;;;;;;4862026;29;20055;-84
2022/07/05 08:16:49;;;;;;;3.42;0.90;;;19.80;99.90;;;;;;4861659;29;20502;-85
2022/07/05 08:21:59;;;;;;;2.17;0.57;;;19.90;99.90;;;;;;4861803;29;20193;-86
2022/07/05 08:24:25;;;;;;;3.58;0.75;;;20.20;99.90;;;;;;4846287;29;20132;-85
2022/07/05 08:26:50;;;;;;;2.40;0.60;;;20.40;99.90;;;;;;4833663;29;20059;-85
2022/07/05 08:29:16;;;;;;;1.73;0.93;;;20.60;99.90;;;;;;4823893;29;20506;-88
2022/07/05 08:31:49;;;;;;;3.40;0.65;;;20.80;99.90;;;;;;4833598;29;20057;-86
2022/07/05 08:34:17;;;;;;;0.93;0.47;;;21.10;99.90;;;;;;4850080;29;20061;-85
2022/07/05 08:36:44;;;;;;;2.63;0.90;;;21.70;99.90;;;;;;4848193;29;20052;-85
2022/07/05 08:39:10;;;;;;;1.45;0.50;;;22.30;99.90;;;;;;4850308;29;20045;-87
2022/07/05 08:41:38;;;;;;;3.33;0.80;;;22.70;99.90;;;;;;4859999;29;20072;-86
2022/07/05 08:44:04;;;;;;;4.53;0.75;;;22.10;1.00;;;;;;4849861;29;20064;-85
2022/07/05 08:46:31;;;;;;;2.38;0.70;;;21.80;99.90;;;;;;4845429;29;20064;-85
2022/07/05 08:49:00;;;;;;;3.92;0.70;;;22.00;99.90;;;;;;4855999;29;20044;-84
2022/07/05 08:51:28;;;;;;;3.75;0.80;;;22.10;99.90;;;;;;4886256;29;20055;-84
2022/07/05 08:53:57;;;;;;;3.25;0.70;;;22.00;99.90;;;;;;4913865;29;20052;-84
2022/07/05 08:56:23;;;;;;;2.50;0.80;;;22.30;99.90;;;;;;4911822;29;20048;-85
2022/07/05 08:58:49;;;;;;;3.08;0.95;;;22.80;99.90;;;;;;4887592;29;20059;-84
2022/07/05 09:01:15;;;;;;;2.10;0.60;;;23.70;99.90;;;;;;4883946;29;20107;-85
2022/07/05 09:03:50;;;;;;;2.67;0.80;;;23.60;69.00;;;;;;4902960;29;20128;-84
2022/07/05 09:06:21;;;;;;;2.42;0.60;;;23.50;1.00;;;;;;4889146;29;20052;-85
2022/07/05 09:08:49;;;;;;;2.38;0.65;;;23.60;1.00;;;;;;4908919;29;20052;-86
2022/07/05 09:11:16;;;;;;;3.25;0.50;;;24.00;1.00;;;;;;4867141;29;20059;-85
2022/07/05 09:13:47;;;;;;;1.48;0.63;;;24.80;1.00;;;;;;4867919;29;20045;-85
2022/07/05 09:16:13;;;;;;;1.65;0.70;;;24.40;99.90;;;;;;4895361;29;20127;-86
2022/07/05 09:18:48;;;;;;;4.03;0.68;;;24.30;93.50;;;;;;4886155;29;20049;-85
2022/07/05 09:21:17;;;;;;;2.47;0.47;;;24.20;1.00;;;;;;4885461;29;20390;-86
2022/07/05 09:23:55;;;;;;;2.63;0.60;;;23.50;1.00;;;;;;4883974;29;20193;-85
2022/07/05 09:26:26;;;;;;;4.00;0.75;;;23.20;1.00;;;;;;4888773;29;20139;-85
2022/07/05 09:28:56;;;;;;;3.00;0.90;;;23.00;1.00;;;;;;4898705;29;20044;-85
2022/07/05 09:31:41;;;;;;;4.38;0.90;;;22.80;1.00;;;;;;4898420;29;20581;-85
2022/07/05 09:34:15;;;;;;;2.28;0.68;;;22.40;1.00;;;;;;4882817;29;20388;-85
2022/07/05 09:36:54;;;;;;;5.63;0.70;;;22.00;99.90;;;;;;4879318;29;20048;-85
2022/07/05 09:39:29;;;;;;;4.25;0.80;;;22.00;99.90;;;;;;4897816;29;20052;-84
2022/07/05 09:42:19;;;;;;;4.00;0.93;;;23.20;99.90;;;;;;4894449;29;20056;-84
2022/07/05 09:44:46;;;;;;;5.72;0.63;;;24.00;99.90;;;;;;4869879;29;20143;-84
2022/07/05 09:47:16;;;;;;;4.57;0.75;;;23.40;99.90;;;;;;4894797;29;20057;-85
2022/07/05 09:49:44;;;;;;;1.58;0.60;;;22.80;99.90;;;;;;4879016;29;20066;-85
2022/07/05 09:52:12;;;;;;;5.38;0.98;;;21.90;94.70;;;;;;4882231;29;20055;-85
2022/07/05 09:54:37;;;;;;;2.13;0.60;;;21.40;36.80;;;;;;4878765;29;20057;-85
2022/07/05 09:57:03;;;;;;;2.72;0.60;;;21.20;1.00;;;;;;4878993;29;20059;-85
2022/07/05 09:59:29;;;;;;;3.03;0.70;;;21.10;1.00;;;;;;4890989;29;20057;-89
2022/07/05 10:01:55;;;;;;;3.90;0.82;;;21.10;1.00;;;;;;4863556;29;20049;-85
2022/07/05 10:04:21;;;;;;;3.88;0.82;;;21.30;8.90;;;;;;4894667;29;20067;-84
2022/07/05 10:06:46;;;;;;;2.35;0.70;;;21.40;21.60;;;;;;4896876;29;20056;-85
2022/07/05 10:09:14;;;;;;;3.78;0.80;;;21.40;27.60;;;;;;4897364;29;20498;-85
2022/07/05 10:11:43;;;;;;;4.50;0.60;;;21.20;25.10;;;;;;4866141;29;20127;-85
2022/07/05 10:14:20;;;;;;;1.98;0.70;;;20.90;16.10;;;;;;4897028;29;20055;-86
2022/07/05 10:17:06;;;;;;;5.20;0.60;;;20.80;23.60;;;;;;4896841;29;20094;-86
2022/07/05 10:19:37;;;;;;;3.67;0.80;;;20.90;8.50;;;;;;4865915;29;20048;-89
2022/07/05 10:22:04;;;;;;;2.22;0.80;;;20.80;19.40;;;;;;4881361;29;20297;-87
2022/07/05 10:24:34;;;;;;;4.00;0.90;;;20.80;18.20;;;;;;4862217;29;20157;-86
2022/07/05 10:27:00;;;;;;;2.28;0.90;;;20.70;21.30;;;;;;4895526;29;20084;-85
2022/07/05 10:29:31;;;;;;;3.13;0.80;;;20.60;20.60;;;;;;4899994;29;20044;-84
2022/07/05 10:31:59;;;;;;;5.05;0.75;;;20.90;20.90;;;;;;4879496;29;20068;-85
2022/07/05 10:34:25;;;;;;;3.72;0.70;;;21.50;19.60;;;;;;4895108;29;20502;-85
2022/07/05 10:36:50;;;;;;;2.50;0.80;;;21.70;29.80;;;;;;4865777;29;20060;-85
2022/07/05 10:39:16;;;;;;;4.75;1.00;;;21.70;21.40;;;;;;4866240;29;20057;-85
2022/07/05 10:41:43;;;;;;;4.15;1.00;;;21.70;3.90;;;;;;4881057;29;20052;-87
2022/07/05 10:44:08;;;;;;;2.20;0.80;;;21.40;1.00;;;;;;4865266;29;20135;-86
2022/07/05 10:46:40;;;;;;;7.18;0.90;;;21.30;1.00;;;;;;4881676;29;20135;-90
2022/07/05 10:49:14;;;;;;;3.72;1.10;;;21.00;1.00;;;;;;4907538;29;20095;-85
2022/07/05 10:51:40;;;;;;;3.55;0.80;;;21.00;1.50;;;;;;4895175;29;20061;-84
2022/07/05 10:54:06;;;;;;;3.92;0.90;;;21.30;1.40;;;;;;4880997;29;20541;-84
2022/07/05 10:56:31;;;;;;;5.68;1.08;;;21.30;2.50;;;;;;4896548;29;20459;-86
2022/07/05 10:59:06;;;;;;;2.53;0.85;;;21.90;6.80;;;;;;4865866;29;20060;-85
2022/07/05 11:01:33;;;;;;;3.25;1.02;;;23.80;98.80;;;;;;4896794;29;20044;-85
2022/07/05 11:04:02;;;;;;;6.28;1.13;;;25.10;99.90;;;;;;4880711;29;20056;-84
2022/07/05 11:06:29;;;;;;;1.67;0.88;;;24.80;1.00;;;;;;4893680;29;20045;-84
2022/07/05 11:11:31;;;;;;;2.55;0.75;;;22.80;99.90;;;;;;4896778;29;20063;-85
2022/07/05 11:13:58;;;;;;;2.78;1.02;;;22.00;47.40;;;;;;4896630;29;20057;-85
2022/07/05 11:16:27;;;;;;;1.30;0.52;;;21.50;1.00;;;;;;4897047;29;20064;-85
2022/07/05 11:19:05;;;;;;;1.90;0.80;;;21.30;1.00;;;;;;4896485;29;20181;-86
2022/07/05 11:21:31;;;;;;;5.20;0.90;;;21.80;1.00;;;;;;4912443;29;20414;-85
2022/07/05 11:24:26;;;;;;;4.32;1.27;;;23.60;14.70;;;;;;4880119;29;20052;-85
2022/07/05 11:26:53;;;;;;;4.13;0.80;;;24.40;99.90;;;;;;4894483;29;20063;-85
2022/07/05 11:29:41;;;;;;;3.17;0.70;;;24.50;99.90;;;;;;4896557;29;20160;-86
2022/07/05 11:32:09;;;;;;;1.65;0.63;;;25.00;99.90;;;;;;4881165;29;20056;-85
2022/07/05 11:34:36;;;;;;;3.42;0.75;;;24.50;1.00;;;;;;4881195;29;20060;-86
2022/07/05 11:37:23;;;;;;;5.05;1.05;;;23.60;99.90;;;;;;4881497;29;20048;-87
2022/07/05 11:40:09;;;;;;;4.70;0.90;;;23.20;99.90;;;;;;4889243;29;20044;-84
2022/07/05 11:42:37;;;;;;;;;;;24.00;99.90;;;;;;4889413;29;20510;-84
2022/07/05 11:45:05;;;;;;;5.03;0.77;;;24.60;99.90;;;;;;4890046;29;19923;-85
2022/07/05 11:47:32;;;;;;;2.03;0.63;;;25.80;99.90;;;;;;4862129;29;20498;-84
2022/07/05 11:49:58;;;;;;;3.60;0.80;;;26.20;99.90;;;;;;4892383;29;20044;-84
2022/07/05 11:52:29;;;;;;;3.28;0.70;;;25.50;99.90;;;;;;4880715;29;20069;-85
2022/07/05 11:54:56;;;;;;;4.68;0.52;;;24.90;99.90;;;;;;4899390;29;20048;-84
2022/07/05 11:57:23;;;;;;;2.17;0.50;;;23.90;99.90;;;;;;4892784;29;20414;-85
2022/07/05 11:59:49;;;;;;;3.67;0.50;;;22.90;99.90;;;;;;4881163;29;20056;-85
2022/07/05 12:02:15;;;;;;;2.13;0.70;;;22.30;99.90;;;;;;4896343;29;20071;-85
2022/07/05 12:04:53;;;;;;;2.60;0.60;;;21.90;99.90;;;;;;4880215;29;20044;-84
2022/07/05 12:07:30;;;;;;;3.38;0.63;;;21.60;99.90;;;;;;4897617;29;20058;-84
2022/07/05 12:12:44;;;;;;;6.13;0.63;;;22.40;23.80;;;;;;4881104;29;20124;-84
2022/07/05 12:15:19;;;;;;;2.67;0.45;;;24.00;83.70;;;;;;4895208;29;20566;-84
2022/07/05 12:17:50;;;;;;;3.05;0.45;;;26.20;99.90;;;;;;4881443;29;20117;-87
2022/07/05 12:20:25;;;;;;;1.13;0.43;;;27.50;99.90;;;;;;4897100;29;20075;-85
2022/07/05 12:22:51;;;;;;;2.88;0.52;;;28.10;1.00;;;;;;4895919;29;20103;-85
2022/07/05 12:25:21;;;;;;;1.15;0.45;;;27.90;99.90;;;;;;4887829;29;20058;-85
2022/07/05 12:27:50;;;;;;;1.40;0.52;;;26.60;99.90;;;;;;4870453;29;20048;-88
2022/07/05 12:30:16;;;;;;;2.85;0.63;;;25.90;99.90;;;;;;4904021;29;20059;-84
2022/07/05 12:32:59;;;;;;;0.77;0.30;;;25.50;99.90;;;;;;4895132;29;20048;-85
2022/07/05 12:35:30;;;;;;;2.47;0.40;;;25.90;99.90;;;;;;4895659;29;20056;-84
2022/07/05 12:38:02;;;;;;;2.33;0.60;;;26.70;99.90;;;;;;4883891;29;20044;-85
2022/07/05 12:40:27;;;;;;;2.75;0.85;;;26.60;99.90;;;;;;4880212;29;20139;-84
2022/07/05 12:43:11;;;;;;;3.13;0.60;;;25.50;99.90;;;;;;4876795;29;20132;-84
2022/07/05 12:45:38;;;;;;;4.55;0.52;;;24.50;99.90;;;;;;4876813;29;20596;-85
2022/07/05 12:48:06;;;;;;;3.15;0.50;;;24.70;1.00;;;;;;4890333;29;20052;-85
2022/07/05 12:51:05;;;;;;;5.07;0.75;;;25.80;1.00;;;;;;4886961;29;20061;-86
2022/07/05 12:59:07;;;;;;;3.83;0.60;;;26.90;1.00;;;;;;4903132;29;20052;-84
2022/07/05 13:01:36;;;;;;;3.35;0.70;;;27.90;1.00;;;;;;4896731;29;20490;-85